Terminal Aerodrome Forecast
Issued by NWS

Home | Current Version | Previous Version | Text Only | Print | Product List | Glossary On
Versions: 1 2 3 4 5 6 7 8 9 10 11 12 13
000
FTUS45 KRIW 212300
TAFRKS
TAF
KRKS 212339Z 2200/2224 25030G40KT 5SM -SHRASN SCT017 BKN030
     FM220300 28024G32KT 3SM -SHSN SCT010 OVC017
     FM220600 30018G30KT P6SM VCSH SCT018 BKN040
     FM222100 33030G40KT P6SM VCSH SCT020 OVC050=

USA.gov is the U.S. government's official web portal to all federal, state and local government web resources and services.